Time;durP1;ratioP1;P1;durP2;ratioP2;P2;SDS_P1;SDS_P2;PMS_P1;PMS_P2;Temp;Humidity;BMP_temperature;BMP_pressure;BME280_temperature;BME280_humidity;BME280_pressure;Samples;Min_cycle;Max_cycle;Signal;HPM_P1;HPM_P2
2024/03/16 00:01:20;;;;;;;15.52;4.78;;;;;;;12.17;100.00;100875.69;5113991;28;20044;-68
2024/03/16 00:04:08;;;;;;;14.10;4.30;;;;;;;12.17;100.00;100878.41;5106774;28;20083;-68
2024/03/16 00:06:57;;;;;;;15.30;4.50;;;;;;;12.17;100.00;100878.41;5100527;28;20097;-69
2024/03/16 00:09:46;;;;;;;18.63;4.72;;;;;;;12.19;100.00;100878.13;5069459;28;20036;-68
2024/03/16 00:12:34;;;;;;;15.00;4.10;;;;;;;12.17;100.00;100870.22;5084553;28;20043;-69
2024/03/16 00:15:22;;;;;;;16.55;4.50;;;;;;;12.16;100.00;100871.31;5098304;28;20046;-68
2024/03/16 00:18:10;;;;;;;16.35;3.92;;;;;;;12.16;100.00;100865.84;5085288;28;20384;-68
2024/03/16 00:20:59;;;;;;;13.73;4.38;;;;;;;12.15;100.00;100881.41;5111348;28;20043;-68
2024/03/16 00:23:47;;;;;;;16.58;4.68;;;;;;;12.15;100.00;100884.16;5095672;28;20062;-67
2024/03/16 00:26:35;;;;;;;13.38;4.05;;;;;;;12.15;100.00;100883.34;5085229;28;20048;-68
2024/03/16 00:29:24;;;;;;;13.30;3.67;;;;;;;12.12;100.00;100892.06;5113675;28;20051;-68
2024/03/16 00:32:12;;;;;;;17.88;4.28;;;;;;;12.12;100.00;100889.31;5114170;28;20061;-68
2024/03/16 00:35:00;;;;;;;15.55;4.38;;;;;;;12.06;100.00;100877.59;5097839;28;20043;-68
2024/03/16 00:37:48;;;;;;;16.33;4.18;;;;;;;12.04;100.00;100881.72;5084601;28;20047;-68
2024/03/16 00:40:36;;;;;;;18.17;4.07;;;;;;;12.04;100.00;100893.44;5111843;28;20509;-68
2024/03/16 00:43:24;;;;;;;15.00;4.38;;;;;;;12.05;100.00;100888.78;5094861;28;20047;-68
2024/03/16 00:46:12;;;;;;;16.38;4.43;;;;;;;12.06;100.00;100887.72;5111986;28;20047;-68
2024/03/16 00:49:02;;;;;;;17.17;4.47;;;;;;;12.07;100.00;100892.06;5083423;28;20127;-68
2024/03/16 00:51:50;;;;;;;17.33;4.97;;;;;;;12.06;100.00;100891.25;5095453;28;20059;-68
2024/03/16 00:54:38;;;;;;;18.08;5.18;;;;;;;12.06;100.00;100887.72;5099691;28;20047;-68
2024/03/16 00:57:26;;;;;;;17.42;4.90;;;;;;;12.05;100.00;100886.06;5076323;28;20439;-68
2024/03/16 01:00:14;;;;;;;14.43;4.70;;;;;;;12.04;100.00;100900.81;5078596;28;20366;-68
2024/03/16 01:03:03;;;;;;;16.50;4.78;;;;;;;12.02;100.00;100898.34;5088585;28;20032;-68
2024/03/16 01:05:52;;;;;;;16.73;5.10;;;;;;;12.02;100.00;100908.47;5103086;28;20051;-67
2024/03/16 01:08:40;;;;;;;11.77;3.90;;;;;;;11.99;100.00;100912.56;5111789;28;20048;-68
2024/03/16 01:11:28;;;;;;;15.80;4.82;;;;;;;11.97;100.00;100911.22;5067218;28;20496;-68
2024/03/16 01:14:16;;;;;;;13.82;4.55;;;;;;;11.97;100.00;100912.03;5061265;28;20048;-68
2024/03/16 01:17:04;;;;;;;17.55;4.57;;;;;;;11.97;100.00;100905.75;5092038;28;20051;-68
2024/03/16 01:19:51;;;;;;;16.17;4.95;;;;;;;11.95;100.00;100908.75;5073431;28;20056;-67
2024/03/16 01:22:40;;;;;;;16.00;4.50;;;;;;;11.93;100.00;100910.97;5091922;28;20051;-67
2024/03/16 01:25:28;;;;;;;19.77;4.93;;;;;;;11.92;100.00;100917.50;5076793;28;20180;-68
2024/03/16 01:28:16;;;;;;;16.13;4.45;;;;;;;11.89;100.00;100913.41;5049463;28;20385;-68
2024/03/16 01:31:04;;;;;;;15.60;4.15;;;;;;;11.90;100.00;100923.22;5092668;28;20043;-68
2024/03/16 01:33:52;;;;;;;13.38;4.20;;;;;;;11.89;100.00;100918.88;5092082;28;20036;-68
2024/03/16 01:36:40;;;;;;;15.68;4.90;;;;;;;11.87;100.00;100923.78;5092709;28;20472;-68
2024/03/16 01:39:29;;;;;;;19.02;4.10;;;;;;;11.86;100.00;100929.50;5064760;28;20059;-68
2024/03/16 01:42:17;;;;;;;16.30;4.32;;;;;;;11.87;100.00;100928.44;5061763;28;20471;-69
2024/03/16 01:45:12;;;;;;;14.52;4.25;;;;;;;11.87;100.00;100933.88;5064027;28;20112;-69
2024/03/16 01:48:03;;;;;;;15.00;4.47;;;;;;;11.83;100.00;100930.03;5072107;28;20072;-68
2024/03/16 01:50:53;;;;;;;12.93;3.95;;;;;;;11.81;100.00;100941.25;5063119;28;20491;-69
2024/03/16 01:53:41;;;;;;;17.52;5.05;;;;;;;11.81;100.00;100941.25;5094063;28;20370;-68
2024/03/16 01:56:29;;;;;;;18.15;5.22;;;;;;;11.76;100.00;100938.50;5101692;28;20055;-69
2024/03/16 01:59:17;;;;;;;12.55;3.95;;;;;;;11.77;100.00;100937.41;5098740;28;20492;-69
2024/03/16 02:02:06;;;;;;;17.02;4.47;;;;;;;11.76;100.00;100943.13;5097230;28;20052;-69
2024/03/16 02:04:54;;;;;;;15.48;4.10;;;;;;;11.72;100.00;100946.41;5095116;28;20411;-68
2024/03/16 02:07:44;;;;;;;13.13;4.20;;;;;;;11.67;100.00;100949.16;5097752;28;20557;-69
2024/03/16 02:10:32;;;;;;;15.43;4.22;;;;;;;11.68;100.00;100955.41;5097433;28;20060;-69
2024/03/16 02:13:21;;;;;;;13.57;4.30;;;;;;;11.68;100.00;100952.69;5111576;28;20043;-69
2024/03/16 02:16:09;;;;;;;16.70;4.25;;;;;;;11.67;100.00;100953.78;5112072;28;20086;-69
2024/03/16 02:18:57;;;;;;;12.43;4.22;;;;;;;11.64;100.00;100955.16;5078206;28;20040;-69
2024/03/16 02:21:45;;;;;;;13.75;4.18;;;;;;;11.64;100.00;100957.03;5112051;28;20066;-69
2024/03/16 02:24:33;;;;;;;17.75;5.10;;;;;;;11.64;100.00;100954.31;5110624;28;20043;-69
2024/03/16 02:27:21;;;;;;;15.93;4.45;;;;;;;11.64;100.00;100965.22;5098202;28;20506;-69
2024/03/16 02:30:10;;;;;;;15.60;4.15;;;;;;;11.62;100.00;100964.72;5083940;28;20095;-69
2024/03/16 02:32:58;;;;;;;12.77;3.85;;;;;;;11.62;100.00;100967.44;5078815;28;20036;-69
2024/03/16 02:35:46;;;;;;;14.45;4.47;;;;;;;11.62;100.00;100967.44;5100000;28;20036;-69
2024/03/16 02:38:34;;;;;;;17.60;4.97;;;;;;;11.60;100.00;100969.63;5081827;28;20115;-69
2024/03/16 02:41:22;;;;;;;13.25;4.65;;;;;;;11.60;100.00;100973.16;5097224;28;20044;-69
2024/03/16 02:44:10;;;;;;;13.10;4.82;;;;;;;11.61;100.00;100973.97;5093083;28;20135;-69
2024/03/16 02:46:59;;;;;;;13.43;4.55;;;;;;;11.57;100.00;100983.78;5102589;27;20058;-69
2024/03/16 02:49:49;;;;;;;13.80;5.70;;;;;;;11.54;100.00;100985.13;5129915;27;20130;-69
2024/03/16 02:52:37;;;;;;;15.82;5.30;;;;;;;11.50;100.00;100995.78;5105091;28;20047;-68
2024/03/16 02:55:25;;;;;;;17.80;6.00;;;;;;;11.49;100.00;101002.31;5111877;28;20071;-68
2024/03/16 02:58:13;;;;;;;16.48;5.65;;;;;;;11.48;100.00;101006.16;5081921;28;20363;-67
2024/03/16 03:01:01;;;;;;;16.70;5.80;;;;;;;11.45;100.00;101012.16;5111058;28;20420;-68
2024/03/16 03:03:49;;;;;;;19.40;6.07;;;;;;;11.44;100.00;101017.88;5097185;28;20047;-68
2024/03/16 03:06:38;;;;;;;19.77;6.88;;;;;;;11.35;100.00;101023.00;5102146;28;20040;-68
2024/03/16 03:09:26;;;;;;;27.15;7.65;;;;;;;11.22;100.00;101037.16;5115641;28;20057;-68
2024/03/16 03:12:14;;;;;;;28.67;7.75;;;;;;;11.17;100.00;101035.25;5089365;28;20129;-68
2024/03/16 03:15:03;;;;;;;22.83;6.70;;;;;;;11.18;100.00;101041.50;5131994;28;20148;-68
2024/03/16 03:17:51;;;;;;;23.45;6.90;;;;;;;11.13;100.00;101044.22;5116021;28;20130;-68
2024/03/16 03:20:39;;;;;;;18.02;6.20;;;;;;;11.01;100.00;101058.88;5122166;28;20120;-68
2024/03/16 03:23:28;;;;;;;16.70;5.75;;;;;;;10.94;100.00;101058.28;5081980;28;20096;-69
2024/03/16 03:26:16;;;;;;;19.23;5.40;;;;;;;10.89;100.00;101063.72;5100036;28;20494;-69
2024/03/16 03:29:04;;;;;;;15.02;5.18;;;;;;;10.86;100.00;101067.00;5096041;28;20438;-68
2024/03/16 03:31:56;;;;;;;16.25;5.03;;;;;;;10.82;100.00;101079.50;5092651;28;20495;-69
2024/03/16 03:34:44;;;;;;;13.73;4.50;;;;;;;10.79;100.00;101082.75;5095211;28;20389;-68
2024/03/16 03:37:32;;;;;;;12.90;3.97;;;;;;;10.76;100.00;101089.56;5111310;28;20047;-68
2024/03/16 03:40:20;;;;;;;10.73;3.72;;;;;;;10.72;100.00;101093.88;5111681;28;20055;-68
2024/03/16 03:43:17;;;;;;;10.10;3.40;;;;;;;10.73;100.00;101100.19;5095471;28;20047;-68
2024/03/16 03:46:12;;;;;;;9.30;3.45;;;;;;;10.71;100.00;101107.78;5099048;28;20051;-68
2024/03/16 03:49:10;;;;;;;8.35;3.40;;;;;;;10.65;100.00;101110.47;5110844;28;20419;-69
2024/03/16 03:51:59;;;;;;;9.38;3.05;;;;;;;10.62;100.00;101119.16;5095940;28;20036;-68
2024/03/16 03:54:52;;;;;;;10.27;3.22;;;;;;;10.64;100.00;101119.72;5082514;28;20150;-67
2024/03/16 03:57:40;;;;;;;7.43;3.22;;;;;;;10.64;100.00;101125.16;5083354;28;20142;-68
2024/03/16 04:00:28;;;;;;;11.85;3.47;;;;;;;10.65;100.00;101132.28;5110755;28;20414;-68
2024/03/16 04:03:17;;;;;;;9.27;3.00;;;;;;;10.68;100.00;101124.63;5080805;28;20039;-68
2024/03/16 04:06:05;;;;;;;11.23;3.00;;;;;;;10.64;100.00;101138.78;5110094;28;20043;-68
2024/03/16 04:08:52;;;;;;;11.05;3.22;;;;;;;10.58;100.00;101139.84;5075695;28;20058;-68
2024/03/16 04:11:40;;;;;;;10.30;3.30;;;;;;;10.59;100.00;101137.94;5078062;28;20062;-68
2024/03/16 04:14:28;;;;;;;8.20;3.35;;;;;;;10.59;100.00;101144.22;5112728;28;20396;-68
2024/03/16 04:17:16;;;;;;;10.60;3.13;;;;;;;10.59;100.00;101157.84;5096823;28;20552;-68
2024/03/16 04:20:12;;;;;;;8.85;3.15;;;;;;;10.59;100.00;101174.19;5084776;28;20114;-68
2024/03/16 04:23:01;;;;;;;;;;;;;;;10.56;100.00;101168.41;5100664;28;20051;-68
2024/03/16 04:25:49;;;;;;;6.68;2.60;;;;;;;10.50;100.00;101172.19;5069596;28;20399;-68
2024/03/16 04:28:37;;;;;;;9.70;2.92;;;;;;;10.45;100.00;101178.41;5087387;28;20044;-69
2024/03/16 04:31:25;;;;;;;8.15;2.90;;;;;;;10.38;100.00;101175.88;5064747;28;20048;-69
2024/03/16 04:34:13;;;;;;;8.18;2.65;;;;;;;10.42;100.00;101187.91;5082164;28;20119;-69
2024/03/16 04:37:01;;;;;;;7.10;2.67;;;;;;;10.40;100.00;101189.25;5095432;28;20059;-69
2024/03/16 04:39:50;;;;;;;6.30;2.78;;;;;;;10.37;100.00;101198.78;5093205;28;20185;-69
2024/03/16 04:42:38;;;;;;;5.72;2.60;;;;;;;10.38;100.00;101202.31;5080813;28;20051;-69
2024/03/16 04:45:26;;;;;;;4.20;2.10;;;;;;;10.32;100.00;101220.53;5089873;28;20051;-69
2024/03/16 04:48:14;;;;;;;4.35;2.05;;;;;;;10.22;100.00;101232.09;5072604;28;20047;-69
2024/03/16 04:51:03;;;;;;;7.30;2.83;;;;;;;10.16;100.00;101233.09;5099301;28;20048;-69
2024/03/16 04:53:50;;;;;;;4.72;2.35;;;;;;;10.14;100.00;101237.97;5085693;28;20055;-68
2024/03/16 04:56:38;;;;;;;3.95;2.10;;;;;;;10.13;100.00;101244.50;5077973;28;20230;-68
2024/03/16 04:59:26;;;;;;;5.22;2.03;;;;;;;10.15;100.00;101247.81;5092077;28;20419;-68
2024/03/16 05:02:15;;;;;;;3.28;1.85;;;;;;;10.13;100.00;101252.69;5085927;28;20047;-68
2024/03/16 05:05:06;;;;;;;6.18;2.60;;;;;;;10.15;100.00;101250.53;5065059;28;20074;-68
2024/03/16 05:07:54;;;;;;;4.03;1.98;;;;;;;10.12;100.00;101261.91;5065451;28;20102;-68
2024/03/16 05:10:42;;;;;;;8.90;2.40;;;;;;;10.07;100.00;101270.00;5078342;28;20217;-68
2024/03/16 05:13:30;;;;;;;6.03;2.10;;;;;;;10.03;100.00;101272.44;5078941;28;20074;-68
2024/03/16 05:16:21;;;;;;;11.02;2.50;;;;;;;9.99;100.00;101275.91;5063876;28;20123;-68
2024/03/16 05:19:09;;;;;;;4.20;1.70;;;;;;;10.00;100.00;101283.00;5073248;28;20048;-68
2024/03/16 05:21:57;;;;;;;6.22;1.95;;;;;;;9.99;100.00;101286.81;5072921;28;20108;-68
2024/03/16 05:24:47;;;;;;;6.60;2.08;;;;;;;10.02;100.00;101291.75;5072898;28;20076;-68
2024/03/16 05:27:35;;;;;;;9.82;2.42;;;;;;;10.01;100.00;101301.00;5066944;28;20052;-68
2024/03/16 05:30:24;;;;;;;7.55;2.35;;;;;;;9.99;100.00;101319.47;5050965;28;20066;-68
2024/03/16 05:33:12;;;;;;;5.13;2.28;;;;;;;9.96;100.00;101314.53;5092545;28;20151;-68
2024/03/16 05:36:02;;;;;;;9.15;2.58;;;;;;;9.96;100.00;101320.00;5046901;28;20048;-68
2024/03/16 05:38:51;;;;;;;8.25;2.13;;;;;;;9.99;100.00;101322.19;5069272;28;20159;-68
2024/03/16 05:41:40;;;;;;;7.53;2.65;;;;;;;9.98;100.00;101331.41;5068720;28;20126;-68
2024/03/16 05:44:28;;;;;;;9.38;2.40;;;;;;;9.97;100.00;101337.94;5092769;28;20133;-68
2024/03/16 05:47:21;;;;;;;8.60;2.30;;;;;;;9.95;100.00;101348.25;5064251;28;20036;-68
2024/03/16 05:50:09;;;;;;;5.60;2.30;;;;;;;9.94;100.00;101343.91;5092369;28;20392;-68
2024/03/16 05:52:57;;;;;;;10.77;2.72;;;;;;;9.93;100.00;101359.41;5092349;28;20689;-68
2024/03/16 05:55:45;;;;;;;8.73;3.25;;;;;;;9.87;100.00;101363.13;5098649;28;20200;-68
2024/03/16 05:58:33;;;;;;;5.97;2.40;;;;;;;9.74;100.00;101367.03;5086501;28;20126;-69
2024/03/16 06:01:21;;;;;;;6.45;2.22;;;;;;;9.69;100.00;101369.69;5091447;28;20154;-69
2024/03/16 06:04:10;;;;;;;9.70;2.75;;;;;;;9.69;100.00;101372.41;5092867;28;20051;-68
2024/03/16 06:06:58;;;;;;;6.93;2.17;;;;;;;9.67;100.00;101392.75;5078168;28;20044;-70
2024/03/16 06:09:46;;;;;;;7.50;2.38;;;;;;;9.65;100.00;101401.16;5076727;28;20051;-69
2024/03/16 06:12:34;;;;;;;8.45;2.10;;;;;;;9.63;100.00;101406.03;5094934;28;20047;-69
2024/03/16 06:15:22;;;;;;;8.18;2.60;;;;;;;9.56;100.00;101413.53;5084295;28;20103;-69
2024/03/16 06:18:10;;;;;;;9.13;2.30;;;;;;;9.50;100.00;101422.66;5098949;28;20048;-69
2024/03/16 06:20:58;;;;;;;7.63;2.15;;;;;;;9.53;100.00;101430.34;5064220;28;20052;-69
2024/03/16 06:23:48;;;;;;;7.93;2.38;;;;;;;9.56;100.00;101438.00;5092516;28;20040;-69
2024/03/16 06:26:38;;;;;;;8.50;2.53;;;;;;;9.60;100.00;101442.72;5091286;28;20051;-69
2024/03/16 06:29:26;;;;;;;9.85;2.72;;;;;;;9.62;100.00;101450.66;5082845;28;20099;-70
2024/03/16 06:32:20;;;;;;;6.35;2.05;;;;;;;9.61;100.00;101446.25;5097487;28;20059;-69
2024/03/16 06:35:08;;;;;;;7.13;2.22;;;;;;;9.65;100.00;101471.09;5088130;28;20048;-69
2024/03/16 06:37:56;;;;;;;8.90;2.55;;;;;;;9.58;100.00;101472.06;5091843;28;20048;-69
2024/03/16 06:40:44;;;;;;;9.25;3.00;;;;;;;9.54;100.00;101478.25;5056154;28;20052;-68
2024/03/16 06:43:32;;;;;;;13.13;4.60;;;;;;;9.43;100.00;101479.09;5043142;28;20229;-69
2024/03/16 06:46:22;;;;;;;17.73;10.45;;;;;;;9.47;100.00;101496.59;5072802;28;20072;-67
2024/03/16 06:49:10;;;;;;;142.30;84.20;;;;;;;9.48;100.00;101503.72;5063720;28;20040;-67
2024/03/16 06:51:58;;;;;;;458.48;256.23;;;;;;;9.35;100.00;101511.06;5090039;28;20055;-69
2024/03/16 06:54:46;;;;;;;391.65;220.35;;;;;;;9.20;100.00;101532.53;5082757;28;20040;-68
2024/03/16 06:57:34;;;;;;;72.30;39.33;;;;;;;8.93;100.00;101535.81;5083108;28;20419;-69
2024/03/16 07:00:22;;;;;;;10.57;3.88;;;;;;;8.70;100.00;101546.69;5112977;28;20043;-69
2024/03/16 07:03:10;;;;;;;4.05;1.90;;;;;;;8.62;100.00;101549.78;5070095;28;20506;-68
2024/03/16 07:05:58;;;;;;;5.38;2.30;;;;;;;8.57;100.00;101555.94;5110314;28;20040;-69
2024/03/16 07:08:46;;;;;;;6.38;1.98;;;;;;;8.59;100.00;101563.84;5111895;28;20052;-69
2024/03/16 07:11:34;;;;;;;7.88;2.60;;;;;;;8.64;100.00;101574.81;5096780;28;20564;-69
2024/03/16 07:14:22;;;;;;;4.80;1.70;;;;;;;8.72;100.00;101586.16;5096559;28;20062;-71
2024/03/16 07:17:10;;;;;;;8.70;2.28;;;;;;;8.75;100.00;101587.56;5095188;28;20112;-69
2024/03/16 07:19:59;;;;;;;5.93;2.40;;;;;;;8.66;100.00;101589.81;5113830;28;20487;-69
2024/03/16 07:22:47;;;;;;;7.30;2.25;;;;;;;8.71;100.00;101602.69;5101372;28;20036;-69
2024/03/16 07:25:35;;;;;;;8.30;2.53;;;;;;;8.74;100.00;101610.38;5084593;28;20044;-70
2024/03/16 07:28:23;;;;;;;7.30;2.55;;;;;;;8.76;100.00;101608.25;5109981;28;20128;-69
2024/03/16 07:31:12;;;;;;;7.95;2.17;;;;;;;8.83;100.00;101617.13;5080332;28;20051;-70
2024/03/16 07:34:01;;;;;;;9.13;2.22;;;;;;;8.84;100.00;101629.63;5110694;28;20039;-70
2024/03/16 07:36:50;;;;;;;10.25;2.28;;;;;;;8.93;100.00;101632.81;5096930;28;20058;-70
2024/03/16 07:39:38;;;;;;;12.00;2.92;;;;;;;9.00;100.00;101640.88;5105347;28;20043;-70
2024/03/16 07:42:26;;;;;;;9.75;2.38;;;;;;;8.96;100.00;101641.31;5068019;28;20051;-69
2024/03/16 07:45:15;;;;;;;8.68;2.22;;;;;;;8.98;100.00;101645.69;5096147;28;20504;-71
2024/03/16 07:48:03;;;;;;;6.13;2.40;;;;;;;9.02;100.00;101652.31;5081971;28;20138;-70
2024/03/16 07:50:59;;;;;;;8.45;2.10;;;;;;;9.07;100.00;101655.16;5081698;28;20051;-70
2024/03/16 07:53:47;;;;;;;7.10;2.22;;;;;;;9.06;100.00;101662.47;5069958;28;20035;-70
2024/03/16 07:56:35;;;;;;;11.45;2.80;;;;;;;9.01;100.00;101666.97;5098599;28;20130;-69
2024/03/16 07:59:23;;;;;;;9.05;2.75;;;;;;;9.05;100.00;101673.59;5072836;28;20089;-70
2024/03/16 08:02:11;;;;;;;9.77;3.00;;;;;;;9.04;100.00;101688.22;5080045;28;20158;-70
2024/03/16 08:04:59;;;;;;;16.08;3.67;;;;;;;9.06;100.00;101696.97;5072035;28;20044;-70
2024/03/16 08:07:47;;;;;;;10.63;2.90;;;;;;;9.00;100.00;101708.81;5092334;28;20043;-72
2024/03/16 08:10:35;;;;;;;9.65;2.67;;;;;;;8.84;100.00;101711.16;5085904;28;20043;-69
2024/03/16 08:13:23;;;;;;;10.07;2.72;;;;;;;8.82;100.00;101715.16;5085827;28;20393;-70
2024/03/16 08:16:11;;;;;;;11.00;2.80;;;;;;;8.84;100.00;101721.19;5099975;28;20047;-70
2024/03/16 08:19:00;;;;;;;9.88;2.55;;;;;;;8.84;100.00;101726.63;5096745;28;20054;-71
2024/03/16 08:21:48;;;;;;;10.40;2.75;;;;;;;8.90;100.00;101736.56;5086483;28;20124;-70
2024/03/16 08:24:37;;;;;;;9.43;2.70;;;;;;;8.82;100.00;101735.00;5100531;28;20044;-70
2024/03/16 08:27:25;;;;;;;11.48;2.83;;;;;;;8.88;100.00;101730.53;5114714;28;20043;-70
2024/03/16 08:30:20;;;;;;;;;;;;;;;8.92;100.00;101739.88;5069875;28;20103;-70
2024/03/16 08:33:09;;;;;;;10.07;3.00;;;;;;;8.99;100.00;101745.19;5075082;28;20372;-70
2024/03/16 08:35:57;;;;;;;9.60;2.53;;;;;;;8.94;100.00;101740.47;5045535;28;20408;-70
2024/03/16 08:38:45;;;;;;;9.73;2.53;;;;;;;8.86;100.00;101746.25;5044630;28;20133;-70
2024/03/16 08:41:33;;;;;;;11.38;3.75;;;;;;;8.92;100.00;101748.88;5074489;28;20059;-70
2024/03/16 08:44:21;;;;;;;11.13;2.95;;;;;;;8.99;100.00;101751.47;5069130;28;20052;-70
2024/03/16 08:47:09;;;;;;;9.40;2.72;;;;;;;9.02;100.00;101756.44;5066057;28;20126;-70
2024/03/16 08:49:57;;;;;;;11.45;2.70;;;;;;;9.04;100.00;101767.06;5093982;28;20132;-69
2024/03/16 08:52:46;;;;;;;11.05;3.05;;;;;;;9.01;100.00;101770.25;5064876;28;20500;-70
2024/03/16 08:55:34;;;;;;;10.13;3.00;;;;;;;9.02;100.00;101756.44;5093150;28;20044;-70
2024/03/16 08:58:24;;;;;;;15.25;3.38;;;;;;;9.11;100.00;101759.63;5084229;28;20047;-70
2024/03/16 09:01:13;;;;;;;10.07;3.10;;;;;;;9.17;100.00;101772.28;5070865;28;20161;-70
2024/03/16 09:04:01;;;;;;;9.73;3.13;;;;;;;9.15;100.00;101777.13;5085222;28;20055;-70
2024/03/16 09:06:49;;;;;;;12.52;3.10;;;;;;;9.09;100.00;101778.06;5114508;28;20036;-70
2024/03/16 09:09:37;;;;;;;9.65;2.95;;;;;;;9.04;100.00;101775.22;5085124;28;20071;-69
2024/03/16 09:12:26;;;;;;;12.18;3.08;;;;;;;9.03;100.00;101781.72;5098840;28;20082;-70
2024/03/16 09:15:15;;;;;;;13.30;3.13;;;;;;;9.04;100.00;101786.91;5085806;28;20051;-70
2024/03/16 09:18:03;;;;;;;9.23;2.90;;;;;;;9.03;100.00;101801.59;5083635;28;20069;-70
2024/03/16 09:20:52;;;;;;;14.43;3.10;;;;;;;8.96;100.00;101803.56;5098994;28;20057;-70
2024/03/16 09:23:40;;;;;;;11.50;3.42;;;;;;;9.02;100.00;101801.81;5100046;28;20124;-70
2024/03/16 09:26:28;;;;;;;12.65;4.90;;;;;;;9.01;100.00;101800.16;5083698;28;20040;-70
2024/03/16 09:29:16;;;;;;;14.05;4.40;;;;;;;9.04;100.00;101816.00;5085757;28;20487;-70
2024/03/16 09:32:05;;;;;;;10.65;3.50;;;;;;;9.04;100.00;101838.56;5113403;28;20043;-69
2024/03/16 09:34:53;;;;;;;12.10;3.92;;;;;;;9.06;100.00;101843.78;5114274;28;20070;-70
2024/03/16 09:37:42;;;;;;;12.82;4.10;;;;;;;9.11;100.00;101835.75;5074180;28;20127;-70
2024/03/16 09:40:30;;;;;;;10.80;4.00;;;;;;;9.06;100.00;101841.06;5058594;28;20080;-70
2024/03/16 09:43:18;;;;;;;9.77;4.05;;;;;;;9.00;100.00;101839.28;5045006;28;20044;-70
2024/03/16 09:46:05;;;;;;;11.40;3.45;;;;;;;9.01;100.00;101857.25;5044633;28;20075;-70
2024/03/16 09:48:52;;;;;;;12.38;3.25;;;;;;;8.98;100.00;101858.53;5030016;28;20049;-69
2024/03/16 09:51:40;;;;;;;10.02;2.83;;;;;;;9.00;100.00;101863.75;5045555;28;20044;-69
2024/03/16 09:54:29;;;;;;;9.40;2.70;;;;;;;9.08;100.00;101864.22;5082422;28;20085;-70
2024/03/16 09:57:16;;;;;;;10.40;2.95;;;;;;;9.09;100.00;101878.66;5068595;28;20551;-70
2024/03/16 10:00:08;;;;;;;13.70;3.22;;;;;;;9.06;100.00;101884.56;5069810;28;20126;-70
2024/03/16 10:02:58;;;;;;;11.02;3.20;;;;;;;9.06;100.00;101884.56;5070171;28;20237;-70
2024/03/16 10:05:46;;;;;;;11.52;3.40;;;;;;;9.12;100.00;101899.97;5043556;28;20058;-71
2024/03/16 10:08:33;;;;;;;11.05;3.10;;;;;;;9.16;100.00;101901.13;5055411;28;20496;-70
2024/03/16 10:11:20;;;;;;;10.98;3.38;;;;;;;9.11;100.00;101901.00;5056240;28;20055;-70
2024/03/16 10:14:11;;;;;;;10.15;2.83;;;;;;;9.16;100.00;101906.56;5055947;28;20047;-70
2024/03/16 10:16:58;;;;;;;13.55;3.35;;;;;;;9.21;100.00;101917.56;5096855;28;20172;-70
2024/03/16 10:19:45;;;;;;;12.13;3.13;;;;;;;9.23;100.00;101926.34;5056920;28;20146;-70
2024/03/16 10:22:34;;;;;;;11.85;3.30;;;;;;;9.23;100.00;101920.06;5068476;28;20051;-70
2024/03/16 10:25:22;;;;;;;14.15;2.53;;;;;;;9.18;100.00;101928.94;5070718;28;20043;-70
2024/03/16 10:28:14;;;;;;;10.43;3.00;;;;;;;9.15;100.00;101940.28;5056388;28;20040;-70
2024/03/16 10:31:02;;;;;;;8.18;2.53;;;;;;;9.09;100.00;101949.34;5097139;28;20054;-70
2024/03/16 10:33:50;;;;;;;11.50;3.30;;;;;;;9.09;100.00;101935.75;5083649;28;20048;-71
2024/03/16 10:36:38;;;;;;;8.45;2.70;;;;;;;9.16;100.00;101948.22;5070684;28;20419;-71
2024/03/16 10:39:26;;;;;;;9.32;3.15;;;;;;;9.21;100.00;101942.06;5097655;28;20085;-70
2024/03/16 10:42:15;;;;;;;9.15;2.47;;;;;;;9.23;100.00;101952.72;5069754;28;20047;-71
2024/03/16 10:45:02;;;;;;;6.82;2.40;;;;;;;9.21;100.00;101966.53;5070261;28;20054;-70
2024/03/16 10:47:53;;;;;;;6.32;2.63;;;;;;;9.19;100.00;101974.09;5096738;28;20388;-70
2024/03/16 10:50:48;;;;;;;7.82;2.40;;;;;;;9.13;100.00;101975.03;5070310;28;20051;-69
2024/03/16 10:53:36;;;;;;;9.68;2.67;;;;;;;9.15;100.00;101979.16;5085785;28;20055;-70
2024/03/16 10:56:25;;;;;;;12.60;2.75;;;;;;;9.20;100.00;101989.34;5083200;28;20043;-70
2024/03/16 10:59:32;;;;;;;10.55;3.00;;;;;;;9.21;100.00;102001.88;5056968;28;20040;-70
2024/03/16 11:02:20;;;;;;;7.57;2.65;;;;;;;9.24;100.00;101998.72;5069085;28;20048;-70
2024/03/16 11:05:14;;;;;;;8.13;2.60;;;;;;;9.22;100.00;102006.28;5081966;28;20061;-69
2024/03/16 11:08:23;;;;;;;8.13;2.50;;;;;;;9.26;99.86;101996.59;5069160;28;20040;-71
2024/03/16 11:11:10;;;;;;;7.00;2.60;;;;;;;9.27;99.36;102008.31;5070191;28;20404;-70
2024/03/16 11:14:04;;;;;;;10.13;2.83;;;;;;;9.30;99.36;102013.28;5081766;28;20050;-69
2024/03/16 11:16:51;;;;;;;8.75;2.20;;;;;;;9.32;97.58;102017.44;5096922;28;20082;-69
2024/03/16 11:19:38;;;;;;;8.00;2.55;;;;;;;9.33;97.36;102021.81;5081793;28;20048;-69
2024/03/16 11:22:26;;;;;;;8.52;2.58;;;;;;;9.34;95.82;102026.19;5070060;28;20058;-69
2024/03/16 11:25:19;;;;;;;6.75;2.28;;;;;;;9.33;94.95;102019.09;5068312;28;20063;-70
2024/03/16 11:28:06;;;;;;;7.07;2.40;;;;;;;9.32;93.08;102017.44;5066434;28;20385;-70
2024/03/16 11:31:46;;;;;;;8.48;3.05;;;;;;;9.31;96.29;102018.50;5078049;28;20044;-69
2024/03/16 11:34:33;;;;;;;9.60;2.60;;;;;;;9.37;95.63;102023.00;5086353;28;20388;-69
2024/03/16 11:37:20;;;;;;;8.35;2.30;;;;;;;9.41;95.55;102019.84;5059729;28;20036;-71
2024/03/16 11:40:07;;;;;;;9.40;3.15;;;;;;;9.43;97.04;102028.56;5036222;28;20055;-70
2024/03/16 11:42:54;;;;;;;8.30;2.97;;;;;;;9.44;98.54;102035.69;5046858;28;20075;-71
2024/03/16 11:45:44;;;;;;;8.77;3.20;;;;;;;9.43;98.67;102044.91;5047591;28;20068;-71
2024/03/16 11:48:33;;;;;;;10.18;3.80;;;;;;;9.43;99.93;102039.47;5049334;28;20049;-69
2024/03/16 11:51:25;;;;;;;11.85;3.35;;;;;;;9.45;100.00;102042.78;5098350;28;20048;-70
2024/03/16 11:54:15;;;;;;;11.38;2.83;;;;;;;9.44;97.46;102047.41;5059253;28;20331;-71
2024/03/16 11:57:03;;;;;;;11.30;3.10;;;;;;;9.38;96.44;102041.00;5066516;28;20056;-69
2024/03/16 11:59:50;;;;;;;11.27;2.90;;;;;;;9.44;95.13;102041.13;5095564;28;20449;-70
2024/03/16 12:02:37;;;;;;;8.88;2.70;;;;;;;9.45;94.82;102034.63;5097350;28;20046;-71
2024/03/16 12:05:24;;;;;;;9.27;2.70;;;;;;;9.51;94.48;102045.41;5086052;28;20419;-70
2024/03/16 12:08:11;;;;;;;6.97;2.35;;;;;;;9.52;92.63;102054.41;5090994;27;20085;-70
2024/03/16 12:10:58;;;;;;;8.07;2.30;;;;;;;9.51;90.79;102056.28;5081538;28;20044;-70
2024/03/16 12:13:46;;;;;;;9.93;2.45;;;;;;;9.54;90.09;102065.88;5072254;28;20126;-71
2024/03/16 12:16:35;;;;;;;8.50;2.47;;;;;;;9.50;85.80;102053.78;5086689;28;20050;-71
2024/03/16 12:19:22;;;;;;;10.07;2.20;;;;;;;9.51;85.97;102058.19;5084956;28;20044;-71
2024/03/16 12:22:16;;;;;;;7.07;2.20;;;;;;;9.58;87.36;102054.31;5096633;28;20338;-71
2024/03/16 12:25:06;;;;;;;9.15;2.60;;;;;;;9.62;83.13;102062.88;5093512;27;20403;-71
2024/03/16 12:27:53;;;;;;;9.95;2.85;;;;;;;9.61;82.07;102061.19;5078543;27;20083;-71
2024/03/16 12:30:40;;;;;;;7.57;2.72;;;;;;;9.60;82.35;102064.97;5119447;27;20051;-68
2024/03/16 12:33:27;;;;;;;11.25;2.50;;;;;;;9.60;83.46;102064.97;5116190;27;20044;-69
2024/03/16 12:36:14;;;;;;;7.72;2.47;;;;;;;9.63;84.21;102072.66;5052690;28;20063;-69
2024/03/16 12:39:07;;;;;;;6.13;2.20;;;;;;;9.66;82.87;102077.66;5065639;28;20075;-69
2024/03/16 12:41:54;;;;;;;6.78;2.45;;;;;;;9.66;80.69;102077.66;5086356;27;20043;-69
2024/03/16 12:44:43;;;;;;;7.45;2.28;;;;;;;9.66;81.55;102079.53;5119942;27;20126;-68
2024/03/16 12:47:30;;;;;;;10.85;2.70;;;;;;;9.65;81.39;102081.44;5106406;27;20127;-69
2024/03/16 12:50:17;;;;;;;7.82;2.60;;;;;;;9.63;80.90;102085.47;5091242;28;20507;-70
2024/03/16 12:53:06;;;;;;;6.55;2.78;;;;;;;9.65;80.63;102078.72;5099092;28;20048;-69
2024/03/16 12:55:53;;;;;;;8.95;2.50;;;;;;;9.67;80.01;102089.34;5086184;28;20044;-70
2024/03/16 12:58:40;;;;;;;6.82;2.50;;;;;;;9.69;80.08;102087.25;5099053;28;20071;-70